Wetterdaten: Sonntag, 23.12.2007
Datum Zeit Temp. A. Feuchte A. Luftdruck Regen Wind Richtung Richtung Sonnenschein UV Solar Windben
23.12.2007 00:00 -6,0 C 89 % 1026,2 hPa 0,0 mm 0,0 km/h (0 Bft) N 0 0 min 0 UV-I 0 W/m 0,0 km/h (0 Bft)
23.12.2007 00:10 -6,1 C 89 % 1026,0 hPa 0,0 mm 0,0 km/h (0 Bft) N 0 0 min 0 UV-I 0 W/m 0,0 km/h (0 Bft)
23.12.2007 00:20 -6,1 C 89 % 1026,1 hPa 0,0 mm 0,0 km/h (0 Bft) N 0 0 min 0 UV-I 0 W/m 0,0 km/h (0 Bft)
23.12.2007 00:30 -6,2 C 89 % 1026,1 hPa 0,0 mm 0,0 km/h (0 Bft) N 0 0 min 0 UV-I 0 W/m 0,0 km/h (0 Bft)
23.12.2007 00:40 -6,2 C 90 % 1026,1 hPa 0,0 mm 0,0 km/h (0 Bft) N 0 0 min 0 UV-I 0 W/m 0,0 km/h (0 Bft)
23.12.2007 00:50 -6,2 C 90 % 1026,2 hPa 0,0 mm 0,0 km/h (0 Bft) N 0 0 min 0 UV-I 0 W/m 0,0 km/h (0 Bft)
23.12.2007 01:00 -6,3 C 89 % 1026,3 hPa 0,0 mm 0,0 km/h (0 Bft) N 0 0 min 0 UV-I 0 W/m 0,0 km/h (0 Bft)
23.12.2007 01:10 -6,3 C 89 % 1026,4 hPa 0,0 mm 0,0 km/h (0 Bft) W-SW 247 0 min 0 UV-I 0 W/m 1,6 km/h (1 Bft)
23.12.2007 01:20 -6,3 C 90 % 1026,4 hPa 0,0 mm 0,0 km/h (0 Bft) N 0 0 min 0 UV-I 0 W/m 0,0 km/h (0 Bft)
23.12.2007 01:30 -6,4 C 90 % 1026,2 hPa 0,0 mm 0,0 km/h (0 Bft) W-SW 247 0 min 0 UV-I 0 W/m 1,6 km/h (1 Bft)
23.12.2007 01:40 -6,4 C 90 % 1026,3 hPa 0,0 mm 0,0 km/h (0 Bft) W-SW 247 0 min 0 UV-I 0 W/m 1,6 km/h (1 Bft)
23.12.2007 01:50 -6,4 C 90 % 1026,2 hPa 0,0 mm 0,0 km/h (0 Bft) W-SW 247 0 min 0 UV-I 0 W/m 3,2 km/h (1 Bft)
23.12.2007 02:00 -6,4 C 90 % 1026,3 hPa 0,0 mm 0,0 km/h (0 Bft) W-SW 247 0 min 0 UV-I 0 W/m 3,2 km/h (1 Bft)
23.12.2007 02:10 -6,4 C 90 % 1026,3 hPa 0,0 mm 0,0 km/h (0 Bft) N 0 0 min 0 UV-I 0 W/m 0,0 km/h (0 Bft)
23.12.2007 02:20 -6,4 C 90 % 1026,1 hPa 0,0 mm 0,0 km/h (0 Bft) W-SW 247 0 min 0 UV-I 0 W/m 1,6 km/h (1 Bft)
23.12.2007 02:30 -6,5 C 90 % 1026,1 hPa 0,0 mm 0,0 km/h (0 Bft) W-SW 247 0 min 0 UV-I 0 W/m 3,2 km/h (1 Bft)
23.12.2007 02:40 -6,5 C 90 % 1026,2 hPa 0,0 mm 0,0 km/h (0 Bft) N 0 0 min 0 UV-I 0 W/m 0,0 km/h (0 Bft)
23.12.2007 02:50 -6,6 C 90 % 1026,4 hPa 0,0 mm 0,0 km/h (0 Bft) N 0 0 min 0 UV-I 0 W/m 0,0 km/h (0 Bft)
23.12.2007 03:00 -6,6 C 90 % 1026,5 hPa 0,0 mm 0,0 km/h (0 Bft) W-SW 247 0 min 0 UV-I 0 W/m 1,6 km/h (1 Bft)
23.12.2007 03:10 -6,6 C 90 % 1026,6 hPa 0,0 mm 0,0 km/h (0 Bft) N 0 0 min 0 UV-I 0 W/m 0,0 km/h (0 Bft)
23.12.2007 03:20 -6,7 C 90 % 1026,7 hPa 0,0 mm 0,0 km/h (0 Bft) W-SW 247 0 min 0 UV-I 0 W/m 1,6 km/h (1 Bft)
23.12.2007 03:30 -6,7 C 90 % 1026,7 hPa 0,0 mm 0,0 km/h (0 Bft) N 0 0 min 0 UV-I 0 W/m 0,0 km/h (0 Bft)
23.12.2007 03:40 -6,8 C 89 % 1026,7 hPa 0,0 mm 0,0 km/h (0 Bft) W-SW 247 0 min 0 UV-I 0 W/m 3,2 km/h (1 Bft)
23.12.2007 03:50 -6,8 C 90 % 1026,6 hPa 0,0 mm 1,6 km/h (1 Bft) W-SW 247 0 min 0 UV-I 0 W/m 4,8 km/h (1 Bft)
23.12.2007 04:00 -6,7 C 90 % 1026,4 hPa 0,0 mm 1,6 km/h (1 Bft) S-SO 157 0 min 0 UV-I 0 W/m 4,8 km/h (1 Bft)
23.12.2007 04:10 -6,6 C 90 % 1026,4 hPa 0,0 mm 1,6 km/h (1 Bft) S-SO 157 0 min 0 UV-I 0 W/m 4,8 km/h (1 Bft)
23.12.2007 04:20 -6,4 C 90 % 1026,6 hPa 0,0 mm 0,0 km/h (0 Bft) S-SO 157 0 min 0 UV-I 0 W/m 4,8 km/h (1 Bft)
23.12.2007 04:30 -6,2 C 90 % 1026,5 hPa 0,0 mm 0,0 km/h (0 Bft) N 0 0 min 0 UV-I 0 W/m 0,0 km/h (0 Bft)
23.12.2007 04:40 -6,1 C 91 % 1026,4 hPa 0,0 mm 0,0 km/h (0 Bft) S-SO 157 0 min 0 UV-I 0 W/m 3,2 km/h (1 Bft)
23.12.2007 04:50 -5,9 C 91 % 1026,2 hPa 0,0 mm 0,0 km/h (0 Bft) S-SO 157 0 min 0 UV-I 0 W/m 3,2 km/h (1 Bft)
23.12.2007 05:00 -5,8 C 91 % 1026,1 hPa 0,0 mm 1,6 km/h (1 Bft) S-SO 157 0 min 0 UV-I 0 W/m 4,8 km/h (1 Bft)
23.12.2007 05:10 -5,6 C 91 % 1026,2 hPa 0,0 mm 1,6 km/h (1 Bft) S-SO 157 0 min 0 UV-I 0 W/m 3,2 km/h (1 Bft)
23.12.2007 05:20 -5,4 C 91 % 1026,2 hPa 0,0 mm 0,0 km/h (0 Bft) S-SO 157 0 min 0 UV-I 0 W/m 3,2 km/h (1 Bft)
23.12.2007 05:30 -5,4 C 91 % 1026,2 hPa 0,0 mm 0,0 km/h (0 Bft) S-SO 157 0 min 0 UV-I 0 W/m 3,2 km/h (1 Bft)
23.12.2007 05:40 -5,3 C 90 % 1026,1 hPa 0,0 mm 1,6 km/h (1 Bft) S-SO 157 0 min 0 UV-I 0 W/m 4,8 km/h (1 Bft)
23.12.2007 05:50 -5,3 C 90 % 1026,1 hPa 0,0 mm 0,0 km/h (0 Bft) SO 135 0 min 0 UV-I 0 W/m 3,2 km/h (1 Bft)
23.12.2007 06:00 -5,2 C 90 % 1026,2 hPa 0,0 mm 0,0 km/h (0 Bft) SO 135 0 min 0 UV-I 0 W/m 1,6 km/h (1 Bft)
23.12.2007 06:10 -5,2 C 90 % 1026,3 hPa 0,0 mm 0,0 km/h (0 Bft) SO 135 0 min 0 UV-I 0 W/m 1,6 km/h (1 Bft)
23.12.2007 06:20 -5,1 C 90 % 1026,3 hPa 0,0 mm 0,0 km/h (0 Bft) SO 135 0 min 0 UV-I 0 W/m 1,6 km/h (1 Bft)
23.12.2007 06:30 -5,1 C 90 % 1026,3 hPa 0,0 mm 0,0 km/h (0 Bft) SO 135 0 min 0 UV-I 0 W/m 1,6 km/h (1 Bft)
23.12.2007 06:40 -4,9 C 90 % 1026,3 hPa 0,0 mm 0,0 km/h (0 Bft) SO 135 0 min 0 UV-I 0 W/m 1,6 km/h (1 Bft)
23.12.2007 06:50 -4,9 C 90 % 1026,4 hPa 0,0 mm 0,0 km/h (0 Bft) SO 135 0 min 0 UV-I 0 W/m 1,6 km/h (1 Bft)
23.12.2007 07:00 -4,8 C 91 % 1026,4 hPa 0,0 mm 0,0 km/h (0 Bft) SO 135 0 min 0 UV-I 0 W/m 1,6 km/h (1 Bft)
23.12.2007 07:10 -4,7 C 91 % 1026,5 hPa 0,0 mm 0,0 km/h (0 Bft) SO 135 0 min 0 UV-I 0 W/m 1,6 km/h (1 Bft)
23.12.2007 07:20 -4,6 C 91 % 1026,5 hPa 0,0 mm 0,0 km/h (0 Bft) SO 135 0 min 0 UV-I 0 W/m 1,6 km/h (1 Bft)
23.12.2007 07:30 -4,5 C 91 % 1026,5 hPa 0,0 mm 0,0 km/h (0 Bft) SO 135 0 min 0 UV-I 0 W/m 3,2 km/h (1 Bft)
23.12.2007 07:40 -4,4 C 91 % 1026,6 hPa 0,0 mm 0,0 km/h (0 Bft) SO 135 0 min 0 UV-I 0 W/m 3,2 km/h (1 Bft)
23.12.2007 07:50 -4,2 C 91 % 1026,8 hPa 0,0 mm 0,0 km/h (0 Bft) SO 135 0 min 0 UV-I 0 W/m 3,2 km/h (1 Bft)
23.12.2007 08:00 -4,1 C 91 % 1026,8 hPa 0,0 mm 0,0 km/h (0 Bft) SO 135 0 min 0 UV-I 0 W/m 1,6 km/h (1 Bft)
23.12.2007 08:10 -3,9 C 91 % 1027,0 hPa 0,0 mm 0,0 km/h (0 Bft) SO 135 0 min 0 UV-I 0 W/m 1,6 km/h (1 Bft)
23.12.2007 08:20 -3,7 C 92 % 1027,0 hPa 0,0 mm 0,0 km/h (0 Bft) SO 135 0 min 0 UV-I 0 W/m 1,6 km/h (1 Bft)
23.12.2007 08:30 -3,4 C 92 % 1027,2 hPa 0,0 mm 0,0 km/h (0 Bft) SO 135 0 min 0 UV-I 0 W/m 1,6 km/h (1 Bft)
23.12.2007 08:40 -3,2 C 92 % 1027,2 hPa 0,0 mm 0,0 km/h (0 Bft) SO 135 0 min 0 UV-I 0 W/m 3,2 km/h (1 Bft)
23.12.2007 08:50 -3,1 C 92 % 1027,3 hPa 0,0 mm 0,0 km/h (0 Bft) SO 135 0 min 0 UV-I 0 W/m 1,6 km/h (1 Bft)
23.12.2007 09:00 -2,8 C 92 % 1027,5 hPa 0,0 mm 1,6 km/h (1 Bft) SO 135 0 min 0 UV-I 0 W/m 3,2 km/h (1 Bft)
23.12.2007 09:10 -2,5 C 92 % 1027,8 hPa 0,0 mm 0,0 km/h (0 Bft) SO 135 0 min 0 UV-I 0 W/m 1,6 km/h (1 Bft)
23.12.2007 09:20 -2,3 C 92 % 1027,8 hPa 0,0 mm 0,0 km/h (0 Bft) SO 135 0 min 0 UV-I 0 W/m 1,6 km/h (1 Bft)
23.12.2007 09:30 -2,1 C 92 % 1028,0 hPa 0,0 mm 0,0 km/h (0 Bft) SO 135 0 min 0 UV-I 0 W/m 1,6 km/h (1 Bft)
23.12.2007 09:40 -1,9 C 92 % 1027,9 hPa 0,0 mm 0,0 km/h (0 Bft) SO 135 0 min 0 UV-I 5 W/m 3,2 km/h (1 Bft)
23.12.2007 09:50 -1,7 C 93 % 1027,7 hPa 0,0 mm 1,6 km/h (1 Bft) SO 135 0 min 0 UV-I 5 W/m 4,8 km/h (1 Bft)
23.12.2007 10:00 -1,4 C 93 % 1028,0 hPa 0,0 mm 0,0 km/h (0 Bft) SO 135 0 min 0 UV-I 5 W/m 3,2 km/h (1 Bft)
23.12.2007 10:10 -1,2 C 93 % 1027,9 hPa 0,0 mm 0,0 km/h (0 Bft) SO 135 0 min 0 UV-I 5 W/m 3,2 km/h (1 Bft)
23.12.2007 10:20 -0,9 C 93 % 1028,0 hPa 0,0 mm 0,0 km/h (0 Bft) SO 135 0 min 0 UV-I 5 W/m 3,2 km/h (1 Bft)
23.12.2007 10:30 -0,7 C 93 % 1028,2 hPa 0,0 mm 0,0 km/h (0 Bft) SO 135 0 min 0 UV-I 5 W/m 1,6 km/h (1 Bft)
23.12.2007 10:40 -0,6 C 93 % 1028,2 hPa 0,0 mm 0,0 km/h (0 Bft) SO 135 0 min 0 UV-I 0 W/m 1,6 km/h (1 Bft)
23.12.2007 10:50 -0,4 C 93 % 1028,0 hPa 0,0 mm 1,6 km/h (1 Bft) SO 135 0 min 0 UV-I 11 W/m 3,2 km/h (1 Bft)
23.12.2007 11:00 -0,3 C 93 % 1028,1 hPa 0,0 mm 0,0 km/h (0 Bft) SO 135 0 min 0 UV-I 14 W/m 1,6 km/h (1 Bft)
23.12.2007 11:10 -0,2 C 93 % 1028,0 hPa 0,0 mm 0,0 km/h (0 Bft) SO 135 0 min 0 UV-I 16 W/m 1,6 km/h (1 Bft)
23.12.2007 11:20 -0,1 C 93 % 1027,9 hPa 0,0 mm 0,0 km/h (0 Bft) SO 135 0 min 0 UV-I 28 W/m 1,6 km/h (1 Bft)
23.12.2007 11:30 0,0 C 93 % 1027,8 hPa 0,0 mm 0,0 km/h (0 Bft) SO 135 0 min 0 UV-I 26 W/m 1,6 km/h (1 Bft)
23.12.2007 11:40 0,1 C 93 % 1027,8 hPa 0,0 mm 0,0 km/h (0 Bft) SO 135 0 min 0 UV-I 25 W/m 1,6 km/h (1 Bft)
23.12.2007 11:50 0,1 C 93 % 1027,8 hPa 0,0 mm 0,0 km/h (0 Bft) SO 135 0 min 0 UV-I 44 W/m 1,6 km/h (1 Bft)
23.12.2007 12:00 0,2 C 93 % 1027,8 hPa 0,0 mm 0,0 km/h (0 Bft) N 0 0 min 0 UV-I 39 W/m 0,0 km/h (0 Bft)
23.12.2007 12:10 0,2 C 93 % 1027,7 hPa 0,0 mm 0,0 km/h (0 Bft) SO 135 0 min 0 UV-I 63 W/m 1,6 km/h (1 Bft)
23.12.2007 12:20 0,3 C 93 % 1027,7 hPa 0,0 mm 0,0 km/h (0 Bft) SO 135 0 min 0 UV-I 86 W/m 1,6 km/h (1 Bft)
23.12.2007 12:30 0,4 C 93 % 1027,6 hPa 0,0 mm 0,0 km/h (0 Bft) SO 135 0 min 0 UV-I 88 W/m 3,2 km/h (1 Bft)
23.12.2007 12:40 0,5 C 93 % 1027,6 hPa 0,0 mm 0,0 km/h (0 Bft) SO 135 0 min 0 UV-I 51 W/m 1,6 km/h (1 Bft)
23.12.2007 12:50 0,7 C 93 % 1027,5 hPa 0,0 mm 0,0 km/h (0 Bft) SO 135 0 min 0 UV-I 39 W/m 1,6 km/h (1 Bft)
23.12.2007 13:00 0,8 C 93 % 1027,5 hPa 0,0 mm 0,0 km/h (0 Bft) SO 135 0 min 0 UV-I 84 W/m 1,6 km/h (1 Bft)
23.12.2007 13:10 0,9 C 94 % 1027,4 hPa 0,0 mm 0,0 km/h (0 Bft) SO 135 0 min 0 UV-I 114 W/m 3,2 km/h (1 Bft)
23.12.2007 13:20 1,0 C 93 % 1027,5 hPa 0,0 mm 0,0 km/h (0 Bft) SO 135 0 min 0 UV-I 18 W/m 3,2 km/h (1 Bft)
23.12.2007 13:30 1,1 C 93 % 1027,5 hPa 0,0 mm 0,0 km/h (0 Bft) SO 135 0 min 0 UV-I 19 W/m 1,6 km/h (1 Bft)
23.12.2007 13:40 1,2 C 94 % 1027,4 hPa 0,0 mm 0,0 km/h (0 Bft) SO 135 0 min 0 UV-I 25 W/m 3,2 km/h (1 Bft)
23.12.2007 13:50 1,3 C 94 % 1027,4 hPa 0,0 mm 0,0 km/h (0 Bft) SO 135 0 min 0 UV-I 42 W/m 1,6 km/h (1 Bft)
23.12.2007 14:00 1,3 C 94 % 1027,3 hPa 0,0 mm 0,0 km/h (0 Bft) SO 135 0 min 0 UV-I 44 W/m 3,2 km/h (1 Bft)
23.12.2007 14:10 1,3 C 93 % 1027,1 hPa 0,3 mm 1,6 km/h (1 Bft) S 180 0 min 0 UV-I 47 W/m 6,4 km/h (2 Bft)
23.12.2007 14:20 1,5 C 94 % 1027,0 hPa 0,0 mm 1,6 km/h (1 Bft) S 180 0 min 0 UV-I 91 W/m 8,0 km/h (2 Bft)
23.12.2007 14:30 1,7 C 94 % 1027,2 hPa 0,0 mm 3,2 km/h (1 Bft) W-SW 247 0 min 0 UV-I 84 W/m 4,8 km/h (1 Bft)
23.12.2007 14:40 1,9 C 94 % 1027,2 hPa 0,0 mm 3,2 km/h (1 Bft) W-SW 247 0 min 0 UV-I 60 W/m 6,4 km/h (2 Bft)
23.12.2007 14:50 2,1 C 94 % 1027,4 hPa 0,0 mm 1,6 km/h (1 Bft) W 270 0 min 0 UV-I 14 W/m 6,4 km/h (2 Bft)
23.12.2007 15:00 2,1 C 94 % 1027,3 hPa 0,3 mm 1,6 km/h (1 Bft) W-NW 292 0 min 0 UV-I 25 W/m 6,4 km/h (2 Bft)
23.12.2007 15:10 2,2 C 94 % 1027,2 hPa 0,3 mm 4,8 km/h (1 Bft) W-SW 247 0 min 0 UV-I 35 W/m 9,7 km/h (2 Bft)
23.12.2007 15:20 2,3 C 94 % 1027,4 hPa 0,0 mm 1,6 km/h (1 Bft) W-SW 247 0 min 0 UV-I 21 W/m 6,4 km/h (2 Bft)
23.12.2007 15:30 2,3 C 94 % 1027,4 hPa 0,3 mm 1,6 km/h (1 Bft) W-SW 247 0 min 0 UV-I 11 W/m 6,4 km/h (2 Bft)
23.12.2007 15:40 2,3 C 94 % 1027,4 hPa 0,0 mm 1,6 km/h (1 Bft) W-SW 247 0 min 0 UV-I 9 W/m 6,4 km/h (2 Bft)
23.12.2007 15:50 2,3 C 94 % 1027,5 hPa 0,0 mm 1,6 km/h (1 Bft) W 270 0 min 0 UV-I 7 W/m 6,4 km/h (2 Bft)
23.12.2007 16:00 2,3 C 94 % 1027,4 hPa 0,0 mm 1,6 km/h (1 Bft) W 270 0 min 0 UV-I 5 W/m 6,4 km/h (2 Bft)
23.12.2007 16:10 2,3 C 94 % 1027,5 hPa 0,0 mm 1,6 km/h (1 Bft) W 270 0 min 0 UV-I 0 W/m 3,2 km/h (1 Bft)
23.12.2007 16:20 2,3 C 94 % 1027,5 hPa 0,0 mm 1,6 km/h (1 Bft) W 270 0 min 0 UV-I 0 W/m 4,8 km/h (1 Bft)
23.12.2007 16:30 2,3 C 94 % 1027,4 hPa 0,0 mm 3,2 km/h (1 Bft) W 270 0 min 0 UV-I 0 W/m 8,0 km/h (2 Bft)
23.12.2007 16:40 2,3 C 94 % 1027,5 hPa 0,0 mm 3,2 km/h (1 Bft) W-SW 247 0 min 0 UV-I 0 W/m 8,0 km/h (2 Bft)
23.12.2007 16:50 2,3 C 94 % 1027,5 hPa 0,0 mm 1,6 km/h (1 Bft) W-SW 247 0 min 0 UV-I 0 W/m 6,4 km/h (2 Bft)
23.12.2007 17:00 2,3 C 94 % 1027,6 hPa 0,0 mm 1,6 km/h (1 Bft) W-SW 247 0 min 0 UV-I 0 W/m 4,8 km/h (1 Bft)
23.12.2007 17:10 2,3 C 94 % 1027,6 hPa 0,0 mm 3,2 km/h (1 Bft) W-SW 247 0 min 0 UV-I 0 W/m 8,0 km/h (2 Bft)
23.12.2007 17:20 2,3 C 94 % 1027,5 hPa 0,0 mm 4,8 km/h (1 Bft) W-SW 247 0 min 0 UV-I 0 W/m 9,7 km/h (2 Bft)
23.12.2007 17:30 2,3 C 94 % 1027,6 hPa 0,0 mm 4,8 km/h (1 Bft) W-SW 247 0 min 0 UV-I 0 W/m 11,3 km/h (2 Bft)
23.12.2007 17:40 2,3 C 94 % 1027,7 hPa 0,0 mm 3,2 km/h (1 Bft) W 270 0 min 0 UV-I 0 W/m 8,0 km/h (2 Bft)
23.12.2007 17:50 2,3 C 94 % 1027,7 hPa 0,0 mm 3,2 km/h (1 Bft) W 270 0 min 0 UV-I 0 W/m 6,4 km/h (2 Bft)
23.12.2007 18:00 2,3 C 94 % 1027,7 hPa 0,0 mm 3,2 km/h (1 Bft) W 270 0 min 0 UV-I 0 W/m 6,4 km/h (2 Bft)
23.12.2007 18:10 2,3 C 94 % 1027,8 hPa 0,0 mm 3,2 km/h (1 Bft) W 270 0 min 0 UV-I 0 W/m 6,4 km/h (2 Bft)
23.12.2007 18:20 2,2 C 94 % 1027,7 hPa 0,0 mm 3,2 km/h (1 Bft) W 270 0 min 0 UV-I 0 W/m 9,7 km/h (2 Bft)
23.12.2007 18:30 2,2 C 94 % 1027,8 hPa 0,0 mm 3,2 km/h (1 Bft) W 270 0 min 0 UV-I 0 W/m 9,7 km/h (2 Bft)
23.12.2007 18:40 2,2 C 94 % 1027,8 hPa 0,0 mm 1,6 km/h (1 Bft) W-SW 247 0 min 0 UV-I 0 W/m 8,0 km/h (2 Bft)
23.12.2007 18:50 2,2 C 94 % 1027,9 hPa 0,0 mm 3,2 km/h (1 Bft) W-SW 247 0 min 0 UV-I 0 W/m 9,7 km/h (2 Bft)
23.12.2007 19:00 2,2 C 94 % 1027,9 hPa 0,0 mm 3,2 km/h (1 Bft) W 270 0 min 0 UV-I 0 W/m 8,0 km/h (2 Bft)
23.12.2007 19:10 2,2 C 94 % 1027,9 hPa 0,0 mm 3,2 km/h (1 Bft) W-SW 247 0 min 0 UV-I 0 W/m 6,4 km/h (2 Bft)
23.12.2007 19:20 2,2 C 94 % 1027,9 hPa 0,0 mm 3,2 km/h (1 Bft) W-SW 247 0 min 0 UV-I 0 W/m 9,7 km/h (2 Bft)
23.12.2007 19:30 2,2 C 94 % 1027,9 hPa 0,0 mm 3,2 km/h (1 Bft) W-SW 247 0 min 0 UV-I 0 W/m 8,0 km/h (2 Bft)
23.12.2007 19:40 2,2 C 94 % 1027,9 hPa 0,0 mm 3,2 km/h (1 Bft) W 270 0 min 0 UV-I 0 W/m 8,0 km/h (2 Bft)
23.12.2007 19:50 2,2 C 94 % 1028,0 hPa 0,0 mm 3,2 km/h (1 Bft) W 270 0 min 0 UV-I 0 W/m 8,0 km/h (2 Bft)
23.12.2007 20:00 2,2 C 94 % 1028,0 hPa 0,0 mm 3,2 km/h (1 Bft) W 270 0 min 0 UV-I 0 W/m 6,4 km/h (2 Bft)
23.12.2007 20:10 2,1 C 94 % 1027,9 hPa 0,0 mm 3,2 km/h (1 Bft) W-SW 247 0 min 0 UV-I 0 W/m 8,0 km/h (2 Bft)
23.12.2007 20:20 2,1 C 94 % 1027,9 hPa 0,0 mm 3,2 km/h (1 Bft) SW 225 0 min 0 UV-I 0 W/m 8,0 km/h (2 Bft)
23.12.2007 20:30 2,1 C 94 % 1027,9 hPa 0,0 mm 3,2 km/h (1 Bft) W-SW 247 0 min 0 UV-I 0 W/m 8,0 km/h (2 Bft)
23.12.2007 20:40 2,0 C 94 % 1028,1 hPa 0,0 mm 3,2 km/h (1 Bft) W-SW 247 0 min 0 UV-I 0 W/m 8,0 km/h (2 Bft)
23.12.2007 20:50 2,0 C 94 % 1028,1 hPa 0,0 mm 3,2 km/h (1 Bft) W-SW 247 0 min 0 UV-I 0 W/m 8,0 km/h (2 Bft)
23.12.2007 21:00 1,9 C 94 % 1028,1 hPa 0,0 mm 3,2 km/h (1 Bft) W 270 0 min 0 UV-I 0 W/m 8,0 km/h (2 Bft)
23.12.2007 21:10 1,9 C 94 % 1028,2 hPa 0,0 mm 3,2 km/h (1 Bft) W-SW 247 0 min 0 UV-I 0 W/m 8,0 km/h (2 Bft)
23.12.2007 21:20 1,9 C 94 % 1028,2 hPa 0,0 mm 3,2 km/h (1 Bft) W 270 0 min 0 UV-I 0 W/m 8,0 km/h (2 Bft)
23.12.2007 21:30 1,8 C 94 % 1028,2 hPa 0,0 mm 1,6 km/h (1 Bft) W 270 0 min 0 UV-I 0 W/m 6,4 km/h (2 Bft)
23.12.2007 21:40 1,8 C 94 % 1028,2 hPa 0,0 mm 3,2 km/h (1 Bft) W 270 0 min 0 UV-I 0 W/m 6,4 km/h (2 Bft)
23.12.2007 21:50 1,8 C 94 % 1028,2 hPa 0,0 mm 3,2 km/h (1 Bft) W 270 0 min 0 UV-I 0 W/m 6,4 km/h (2 Bft)
23.12.2007 22:00 1,7 C 94 % 1028,2 hPa 0,0 mm 1,6 km/h (1 Bft) W 270 0 min 0 UV-I 0 W/m 4,8 km/h (1 Bft)
23.12.2007 22:10 1,7 C 94 % 1028,2 hPa 0,0 mm 1,6 km/h (1 Bft) W 270 0 min 0 UV-I 0 W/m 4,8 km/h (1 Bft)
23.12.2007 22:20 1,7 C 94 % 1028,2 hPa 0,0 mm 1,6 km/h (1 Bft) W 270 0 min 0 UV-I 0 W/m 4,8 km/h (1 Bft)
23.12.2007 22:30 1,7 C 94 % 1028,3 hPa 0,0 mm 1,6 km/h (1 Bft) W 270 0 min 0 UV-I 0 W/m 4,8 km/h (1 Bft)
23.12.2007 22:40 1,6 C 94 % 1028,3 hPa 0,0 mm 1,6 km/h (1 Bft) W 270 0 min 0 UV-I 0 W/m 4,8 km/h (1 Bft)
23.12.2007 22:50 1,6 C 94 % 1028,3 hPa 0,0 mm 1,6 km/h (1 Bft) W 270 0 min 0 UV-I 0 W/m 4,8 km/h (1 Bft)
23.12.2007 23:00 1,6 C 94 % 1028,4 hPa 0,0 mm 1,6 km/h (1 Bft) W 270 0 min 0 UV-I 0 W/m 4,8 km/h (1 Bft)
23.12.2007 23:10 1,6 C 94 % 1028,4 hPa 0,0 mm 0,0 km/h (0 Bft) W 270 0 min 0 UV-I 0 W/m 3,2 km/h (1 Bft)
23.12.2007 23:20 1,5 C 94 % 1028,5 hPa 0,0 mm 0,0 km/h (0 Bft) W 270 0 min 0 UV-I 0 W/m 1,6 km/h (1 Bft)
23.12.2007 23:30 1,5 C 94 % 1028,6 hPa 0,0 mm 0,0 km/h (0 Bft) W 270 0 min 0 UV-I 0 W/m 1,6 km/h (1 Bft)
23.12.2007 23:40 1,5 C 94 % 1028,6 hPa 0,0 mm 0,0 km/h (0 Bft) N 0 0 min 0 UV-I 0 W/m 0,0 km/h (0 Bft)
23.12.2007 23:50 1,4 C 94 % 1028,6 hPa 0,0 mm 0,0 km/h (0 Bft) W 270 0 min 0 UV-I 0 W/m 4,8 km/h (1 Bft)
_ Min-Zeit 03:40 00:00 00:10 - 00:00 - - - - - 00:00
Minimum _ -6,8 C 89 % 1026,0 hPa - 0,0 km/h (0 Bft) - - - - - 0,0 km/h (0 Bft)
_ Max-Zeit 15:10 13:10 23:30 14:10 15:10 - - 00:00 00:00 13:10 17:30
Maximum _ 2,3 C 94 % 1028,6 hPa 0,3 mm 4,8 km/h
W-SW (1 Bft)
- - 0 min 0 UV-I 114 W/m 11,3 km/h
W-SW (2 Bft)
Durchschnitt _ -1,3 C 92 % 1027,3 hPa #1,0 mm 1,1 km/h (1 Bft) W - #0 min. 0 UV-I 35 W/m 3,9 km/h (1 Bft)